KDUJ/DUJ METAR and TAF weather

Enter ICAO airport designator
Station Type Date Time Source
KDUJ METAR 2021/03/01 22:36 UTC NOAA

KDUJ 012236Z AUTO 29014G32KT 7SM FEW011 BKN041 OVC050 M01/M06 A2994 RMK AO2 PK WND 29032/2229 SNE35 P0000 T10111056


Station Type Date Time Source
KDUJ Decoded METAR 2021/03/01 22:36 UTC NOAA

DU BOIS-JEFFERSON COUNTY, PA, United States (KDUJ) 41-11N 078-53W
Mar 01, 2021 - 05:36 PM EST / 2021.03.01 2236 UTC
Wind: from the WNW (290 degrees) at 16 MPH (14 KT) gusting to 37 MPH (32 KT):0
Visibility: 7 mile(s):0
Sky conditions: overcast
Precipitation last hour: A trace
Temperature: 30.0 F (-1.1 C)
Windchill: 19 F (-7 C):1
Dew Point: 21.9 F (-5.6 C)
Relative Humidity: 71%
Pressure (altimeter): 29.94 in. Hg (1013 hPa)
ob: KDUJ 012236Z AUTO 29014G32KT 7SM FEW011 BKN041 OVC050 M01/M06 A2994 RMK AO2 PK WND 29032/2229 SNE35 P0000 T10111056
cycle: 22

Station Type Date Time Source
KDUJ TAF 2021/03/01 22:12 UTC NOAA

TAF
AMD KDUJ 012211Z 0122/0218 29015G26KT P6SM -SHSN BKN035
TEMPO 0122/0124 1SM -SHSN BKN012
FM020600 30010G20KT P6SM SCT035
FM021500 28010KT P6SM SKC

Example: see airport list